Time;durP1;ratioP1;P1;durP2;ratioP2;P2;SDS_P1;SDS_P2;PMS_P1;PMS_P2;Temp;Humidity;BMP_temperature;BMP_pressure;BME280_temperature;BME280_humidity;BME280_pressure;Samples;Min_cycle;Max_cycle;Signal;HPM_P1;HPM_P2
2022/09/06 00:00:13;;;;;;;8.32;2.53;;;;;;;-147.76;100.00;60361.69;5115498;28;20055;-75
2022/09/06 00:02:55;;;;;;;7.05;2.90;;;;;;;-147.76;100.00;60361.69;5115788;28;20055;-75
2022/09/06 00:05:22;;;;;;;6.55;2.72;;;;;;;-147.76;100.00;60361.69;5115499;28;20044;-75
2022/09/06 00:07:51;;;;;;;6.00;2.50;;;;;;;-147.76;100.00;60361.69;5115645;28;20496;-75
2022/09/06 00:10:19;;;;;;;11.52;2.90;;;;;;;-147.76;100.00;60361.69;5115436;28;20036;-74
2022/09/06 00:12:47;;;;;;;7.28;2.60;;;;;;;-147.76;100.00;60361.69;5115122;28;20461;-75
2022/09/06 00:15:14;;;;;;;6.88;2.50;;;;;;;-147.76;100.00;60361.69;5115420;28;20044;-75
2022/09/06 00:17:43;;;;;;;7.90;2.42;;;;;;;-147.76;100.00;60361.69;5114849;28;20100;-75
2022/09/06 00:20:11;;;;;;;8.40;2.58;;;;;;;-147.76;100.00;60361.69;5131169;27;20115;-74
2022/09/06 00:22:38;;;;;;;8.50;2.50;;;;;;;-147.76;100.00;60361.69;5135778;27;20047;-75
2022/09/06 00:25:09;;;;;;;6.53;2.40;;;;;;;-147.76;100.00;60361.69;5135742;27;20454;-73
2022/09/06 00:27:36;;;;;;;8.98;2.60;;;;;;;-147.76;100.00;60361.69;5135524;27;20392;-75
2022/09/06 00:30:04;;;;;;;7.25;2.58;;;;;;;-147.76;100.00;60361.69;5135569;27;20503;-75
2022/09/06 00:32:32;;;;;;;7.22;2.42;;;;;;;-147.76;100.00;60361.69;5135152;27;20039;-75
2022/09/06 00:34:59;;;;;;;5.18;2.45;;;;;;;-147.76;100.00;60361.69;5135567;27;20051;-74
2022/09/06 00:37:27;;;;;;;8.00;2.80;;;;;;;-147.76;100.00;60361.69;5135256;27;20420;-75
2022/09/06 00:39:54;;;;;;;6.97;2.55;;;;;;;-147.76;100.00;60361.69;5119287;27;20047;-75
2022/09/06 00:42:23;;;;;;;9.65;2.88;;;;;;;-147.76;100.00;60361.69;5114818;27;20476;-74
2022/09/06 00:44:51;;;;;;;8.65;2.90;;;;;;;-147.76;100.00;60361.69;5114467;28;20059;-75
2022/09/06 00:47:19;;;;;;;7.93;2.63;;;;;;;-147.76;100.00;60361.69;5114139;28;20412;-72
2022/09/06 00:49:47;;;;;;;6.43;2.58;;;;;;;-147.76;100.00;60361.69;5114682;28;20043;-71
2022/09/06 00:52:17;;;;;;;4.88;2.33;;;;;;;-147.76;100.00;60361.69;5114429;28;20047;-74
2022/09/06 00:54:45;;;;;;;6.72;2.58;;;;;;;-147.76;100.00;60361.69;5114214;28;20055;-71
2022/09/06 00:57:13;;;;;;;6.25;2.70;;;;;;;-147.76;100.00;60361.69;5114553;28;20493;-69
2022/09/06 00:59:43;;;;;;;10.77;2.80;;;;;;;-147.76;100.00;60361.69;5114362;28;20441;-71
2022/09/06 01:02:11;;;;;;;6.47;2.60;;;;;;;-147.76;100.00;60361.69;5114004;27;20442;-72
2022/09/06 01:04:40;;;;;;;9.80;2.63;;;;;;;-147.76;100.00;60361.69;5114197;28;20431;-69
2022/09/06 01:07:16;;;;;;;8.55;2.80;;;;;;;-147.76;100.00;60361.69;5114335;28;20401;-73
2022/09/06 01:09:54;;;;;;;9.32;3.38;;;;;;;-147.76;100.00;60361.69;5114568;28;20052;-75
2022/09/06 01:12:31;;;;;;;10.90;3.50;;;;;;;-147.76;100.00;60361.69;5116173;28;20546;-69
2022/09/06 01:15:05;;;;;;;;;;;;;;;-147.76;100.00;60361.69;5114221;28;20496;-69
2022/09/06 01:17:41;;;;;;;13.20;4.35;;;;;;;-147.76;100.00;60361.69;5114568;28;19920;-71
2022/09/06 01:20:32;;;;;;;10.85;4.00;;;;;;;-147.76;100.00;60361.69;5122736;27;20043;-74
2022/09/06 01:23:32;;;;;;;11.30;3.65;;;;;;;-147.76;100.00;60361.69;5127188;27;20055;-70
2022/09/06 01:26:06;;;;;;;8.27;2.97;;;;;;;-147.76;100.00;60361.69;5135935;27;20054;-71
2022/09/06 01:28:36;;;;;;;9.65;2.70;;;;;;;-147.76;100.00;60361.69;5135982;27;20407;-71
2022/09/06 01:31:16;;;;;;;8.45;3.10;;;;;;;-147.76;100.00;60361.69;5134251;27;20050;-71
2022/09/06 01:33:48;;;;;;;6.30;2.80;;;;;;;-147.76;100.00;60361.69;5134467;27;20054;-74
2022/09/06 01:36:18;;;;;;;9.18;3.17;;;;;;;-147.76;100.00;60361.69;5134992;27;20054;-74
2022/09/06 01:38:46;;;;;;;7.88;3.10;;;;;;;-147.76;100.00;60361.69;5129112;27;20047;-73
2022/09/06 01:41:13;;;;;;;6.50;2.78;;;;;;;-147.76;100.00;60361.69;5113830;28;20084;-72
2022/09/06 01:43:46;;;;;;;9.57;3.08;;;;;;;-147.76;100.00;60361.69;5113895;27;20446;-69
2022/09/06 01:46:18;;;;;;;11.35;3.10;;;;;;;-147.76;100.00;60361.69;5114081;27;20051;-72
2022/09/06 01:49:08;;;;;;;13.05;3.28;;;;;;;-147.76;100.00;60361.69;5114210;28;20044;-70
2022/09/06 01:51:45;;;;;;;9.07;2.90;;;;;;;-147.76;100.00;60361.69;5113927;28;20050;-70
2022/09/06 01:54:24;;;;;;;7.97;3.00;;;;;;;-147.76;100.00;60361.69;5113659;28;20046;-72
2022/09/06 01:57:03;;;;;;;7.90;2.72;;;;;;;-147.76;100.00;60361.69;5114254;28;20072;-73
2022/09/06 01:59:41;;;;;;;8.13;2.80;;;;;;;-147.76;100.00;60361.69;5113302;28;20036;-70
2022/09/06 02:02:11;;;;;;;9.70;2.80;;;;;;;-147.76;100.00;60361.69;5114301;28;20446;-72
2022/09/06 02:04:43;;;;;;;12.10;3.03;;;;;;;-147.76;100.00;60361.69;5114944;28;20040;-75
2022/09/06 02:07:15;;;;;;;9.50;2.90;;;;;;;-147.76;100.00;60361.69;5115056;27;20408;-69
2022/09/06 02:09:44;;;;;;;7.30;2.83;;;;;;;-147.76;100.00;60361.69;5113488;28;20040;-70
2022/09/06 02:12:14;;;;;;;7.03;2.67;;;;;;;-147.76;100.00;60361.69;5113191;28;20056;-75
2022/09/06 02:14:46;;;;;;;8.73;3.15;;;;;;;-147.76;100.00;60361.69;5113576;28;20043;-75
2022/09/06 02:17:18;;;;;;;7.40;2.78;;;;;;;-147.76;100.00;60361.69;5118980;28;20047;-72
2022/09/06 02:19:48;;;;;;;8.68;2.88;;;;;;;-147.76;100.00;60361.69;5117731;28;20051;-71
2022/09/06 02:22:19;;;;;;;8.18;2.70;;;;;;;-147.76;100.00;60361.69;5137675;27;20051;-75
2022/09/06 02:24:47;;;;;;;6.72;2.78;;;;;;;-147.76;100.00;60361.69;5138739;27;20516;-72
2022/09/06 02:27:15;;;;;;;9.55;2.90;;;;;;;-147.76;100.00;60361.69;5137660;27;20043;-71
2022/09/06 02:29:44;;;;;;;8.10;2.90;;;;;;;-147.76;100.00;60361.69;5137906;27;20043;-70
2022/09/06 02:32:14;;;;;;;8.38;2.72;;;;;;;-147.76;100.00;60361.69;5137791;27;20122;-74
2022/09/06 02:34:44;;;;;;;7.18;2.90;;;;;;;-147.76;100.00;60361.69;5138854;27;20047;-75
2022/09/06 02:37:13;;;;;;;9.05;3.20;;;;;;;-147.76;100.00;60361.69;5139493;27;20092;-68
2022/09/06 02:39:40;;;;;;;10.35;3.25;;;;;;;-147.76;100.00;60361.69;5123533;27;20488;-68
2022/09/06 02:42:10;;;;;;;10.65;3.20;;;;;;;-147.76;100.00;60361.69;5116787;27;20100;-73
2022/09/06 02:44:37;;;;;;;8.95;3.20;;;;;;;-147.76;100.00;60361.69;5116863;28;20043;-69
2022/09/06 02:47:07;;;;;;;6.40;3.08;;;;;;;-147.76;100.00;60361.69;5116930;28;20059;-74
2022/09/06 02:49:34;;;;;;;11.82;3.22;;;;;;;-147.76;100.00;60361.69;5116860;27;20097;-75
2022/09/06 02:52:02;;;;;;;10.35;2.90;;;;;;;-147.76;100.00;60361.69;5116872;28;20052;-70
2022/09/06 02:54:29;;;;;;;10.57;3.30;;;;;;;-147.76;100.00;60361.69;5116799;28;20046;-71
2022/09/06 02:56:57;;;;;;;9.18;2.75;;;;;;;-147.76;100.00;60361.69;5116643;28;20088;-69
2022/09/06 02:59:25;;;;;;;8.70;2.90;;;;;;;-147.76;100.00;60361.69;5116846;28;20396;-70
2022/09/06 03:01:52;;;;;;;9.32;3.40;;;;;;;-147.76;100.00;60361.69;5116614;28;20040;-73
2022/09/06 03:04:21;;;;;;;7.18;2.97;;;;;;;-147.76;100.00;60361.69;5116547;28;20039;-74
2022/09/06 03:06:49;;;;;;;9.32;2.63;;;;;;;-147.76;100.00;60361.69;5116498;28;20044;-75
2022/09/06 03:09:16;;;;;;;8.68;2.80;;;;;;;-147.76;100.00;60361.69;5116606;28;20044;-72
2022/09/06 03:11:44;;;;;;;11.38;2.90;;;;;;;-147.76;100.00;60361.69;5115904;28;20381;-72
2022/09/06 03:14:11;;;;;;;11.63;2.90;;;;;;;-147.76;100.00;60361.69;5117004;28;20054;-70
2022/09/06 03:16:39;;;;;;;8.75;3.50;;;;;;;-147.76;100.00;60361.69;5116468;28;20393;-69
2022/09/06 03:19:06;;;;;;;11.23;3.92;;;;;;;-147.76;100.00;60361.69;5116402;28;20051;-74
2022/09/06 03:21:35;;;;;;;11.18;3.50;;;;;;;-147.76;100.00;60361.69;5119265;27;20051;-75
2022/09/06 03:24:03;;;;;;;8.70;3.10;;;;;;;-147.76;100.00;60361.69;5136751;27;20043;-75
2022/09/06 03:26:30;;;;;;;8.75;3.25;;;;;;;-147.76;100.00;60361.69;5135163;27;20047;-73
2022/09/06 03:28:58;;;;;;;9.55;3.10;;;;;;;-147.76;100.00;60361.69;5136934;27;20039;-69
2022/09/06 03:31:25;;;;;;;8.43;3.10;;;;;;;-147.76;100.00;60361.69;5136680;27;20093;-73
2022/09/06 03:33:53;;;;;;;9.13;3.10;;;;;;;-147.76;100.00;60361.69;5136802;27;20039;-71
2022/09/06 03:36:21;;;;;;;9.15;3.40;;;;;;;-147.76;100.00;60361.69;5136627;27;20043;-75
2022/09/06 03:38:50;;;;;;;7.28;2.90;;;;;;;-147.76;100.00;60361.69;5130092;27;20509;-75
2022/09/06 03:41:17;;;;;;;7.03;2.88;;;;;;;-147.76;100.00;60361.69;5115391;28;20492;-75
2022/09/06 03:43:45;;;;;;;9.35;3.40;;;;;;;-147.76;100.00;60361.69;5116102;27;20045;-74
2022/09/06 03:46:12;;;;;;;7.47;3.08;;;;;;;-147.76;100.00;60361.69;5115858;27;20047;-68
2022/09/06 03:48:40;;;;;;;10.10;4.63;;;;;;;-147.76;100.00;60361.69;5115653;28;20464;-69
2022/09/06 03:51:07;;;;;;;7.07;2.78;;;;;;;-147.76;100.00;60361.69;5115922;28;20569;-69
2022/09/06 03:53:35;;;;;;;5.65;2.75;;;;;;;-147.76;100.00;60361.69;5115743;28;20047;-73
2022/09/06 03:56:04;;;;;;;8.15;2.92;;;;;;;-147.76;100.00;60361.69;5115304;28;20047;-75
2022/09/06 03:58:32;;;;;;;18.05;2.92;;;;;;;-147.76;100.00;60361.69;5115669;28;20101;-75
2022/09/06 04:01:04;;;;;;;7.00;2.80;;;;;;;-147.76;100.00;60361.69;5115122;28;20515;-75
2022/09/06 04:03:32;;;;;;;7.63;2.60;;;;;;;-147.76;100.00;60361.69;5115377;28;20055;-70
2022/09/06 04:06:00;;;;;;;5.68;2.70;;;;;;;-147.76;100.00;60361.69;5115337;28;20047;-71
2022/09/06 04:08:27;;;;;;;8.05;3.13;;;;;;;-147.76;100.00;60361.69;5115387;28;20040;-75
2022/09/06 04:10:55;;;;;;;7.68;2.90;;;;;;;-147.76;100.00;60361.69;5114920;28;20424;-75
2022/09/06 04:13:25;;;;;;;10.30;3.10;;;;;;;-147.76;100.00;60361.69;5115151;28;20055;-71
2022/09/06 04:15:53;;;;;;;6.82;2.80;;;;;;;-147.76;100.00;60361.69;5115154;28;20414;-71
2022/09/06 04:18:20;;;;;;;12.00;3.17;;;;;;;-147.76;100.00;60361.69;5115283;28;20547;-74
2022/09/06 04:20:49;;;;;;;6.10;2.80;;;;;;;-147.76;100.00;60361.69;5115045;28;20077;-75
2022/09/06 04:23:16;;;;;;;6.50;2.55;;;;;;;-147.76;100.00;60361.69;5130772;27;20043;-74
2022/09/06 04:25:46;;;;;;;6.60;2.50;;;;;;;-147.76;100.00;60361.69;5135803;27;20054;-75
2022/09/06 04:28:14;;;;;;;10.43;3.00;;;;;;;-147.76;100.00;60361.69;5135561;27;20071;-75
2022/09/06 04:30:43;;;;;;;9.23;3.17;;;;;;;-147.76;100.00;60361.69;5135478;27;20043;-72
2022/09/06 04:33:11;;;;;;;10.93;2.80;;;;;;;-147.76;100.00;60361.69;5135520;27;20043;-75
2022/09/06 04:35:38;;;;;;;7.18;2.80;;;;;;;-147.76;100.00;60361.69;5135434;27;20055;-74
2022/09/06 04:38:06;;;;;;;11.25;2.97;;;;;;;-147.76;100.00;60361.69;5134034;27;20043;-73
2022/09/06 04:40:34;;;;;;;9.63;3.38;;;;;;;-147.76;100.00;60361.69;5114463;28;20039;-74
2022/09/06 04:43:01;;;;;;;15.90;6.53;;;;;;;-147.76;100.00;60361.69;5114806;27;20040;-75
2022/09/06 04:45:29;;;;;;;15.85;6.57;;;;;;;-147.76;100.00;60361.69;5114625;27;20089;-74
2022/09/06 04:47:58;;;;;;;9.85;3.72;;;;;;;-147.76;100.00;60361.69;5114826;28;20081;-73
2022/09/06 04:50:25;;;;;;;9.65;3.08;;;;;;;-147.76;100.00;60361.69;5114520;28;20055;-74
2022/09/06 04:52:53;;;;;;;7.93;3.38;;;;;;;-147.76;100.00;60361.69;5114163;28;20124;-75
2022/09/06 04:55:20;;;;;;;9.40;3.20;;;;;;;-147.76;100.00;60361.69;5114579;28;20051;-75
2022/09/06 04:57:48;;;;;;;10.20;2.85;;;;;;;-147.76;100.00;60361.69;5114549;28;20040;-75
2022/09/06 05:00:15;;;;;;;7.05;2.97;;;;;;;-147.76;100.00;60361.69;5114417;28;20101;-75
2022/09/06 05:02:43;;;;;;;7.05;2.97;;;;;;;-147.76;100.00;60361.69;5114216;28;20054;-70
2022/09/06 05:05:12;;;;;;;7.80;2.70;;;;;;;-147.76;100.00;60361.69;5114282;28;20047;-73
2022/09/06 05:07:40;;;;;;;8.73;2.67;;;;;;;-147.76;100.00;60361.69;5113922;28;20043;-74
2022/09/06 05:10:08;;;;;;;6.65;2.45;;;;;;;-147.76;100.00;60361.69;5113983;28;20046;-74
2022/09/06 05:12:36;;;;;;;6.47;2.58;;;;;;;-147.76;100.00;60361.69;5114038;28;20063;-74
2022/09/06 05:15:04;;;;;;;5.45;2.35;;;;;;;-147.76;100.00;60361.69;5114071;28;20043;-72
2022/09/06 05:17:31;;;;;;;9.57;2.72;;;;;;;-147.76;100.00;60361.69;5113774;28;20043;-75
2022/09/06 05:20:00;;;;;;;6.65;2.80;;;;;;;-147.76;100.00;60361.69;5113833;28;20043;-73
2022/09/06 05:22:29;;;;;;;6.28;2.50;;;;;;;-147.76;100.00;60361.69;5117401;27;20039;-74
2022/09/06 05:24:57;;;;;;;7.13;2.67;;;;;;;-147.76;100.00;60361.69;5134453;27;20042;-75
2022/09/06 05:27:24;;;;;;;9.32;2.70;;;;;;;-147.76;100.00;60361.69;5134489;27;20492;-73
2022/09/06 05:29:52;;;;;;;7.43;2.63;;;;;;;-147.76;100.00;60361.69;5134442;27;20047;-74
2022/09/06 05:32:19;;;;;;;6.40;2.35;;;;;;;-147.76;100.00;60361.69;5134434;27;20403;-75
2022/09/06 05:34:47;;;;;;;7.63;2.63;;;;;;;-147.76;100.00;60361.69;5134618;27;20047;-75
2022/09/06 05:37:14;;;;;;;6.45;2.67;;;;;;;-147.76;100.00;60361.69;5134186;27;20388;-75
2022/09/06 05:39:43;;;;;;;7.63;2.50;;;;;;;-147.76;100.00;60361.69;5120140;27;20043;-75
2022/09/06 05:42:11;;;;;;;5.65;2.42;;;;;;;-147.76;100.00;60361.69;5113770;27;20040;-75
2022/09/06 05:44:38;;;;;;;8.35;2.67;;;;;;;-147.76;100.00;60361.69;5113485;28;20412;-75
2022/09/06 05:47:06;;;;;;;7.15;2.40;;;;;;;-147.76;100.00;60361.69;5113838;28;20508;-75
2022/09/06 05:49:34;;;;;;;7.25;2.60;;;;;;;-147.76;100.00;60361.69;5112792;28;20078;-74
2022/09/06 05:52:01;;;;;;;6.80;2.40;;;;;;;-147.76;100.00;60361.69;5113205;28;20040;-74
2022/09/06 05:54:29;;;;;;;7.50;2.50;;;;;;;-147.76;100.00;60361.69;5113935;27;20443;-75
2022/09/06 05:56:58;;;;;;;7.45;2.45;;;;;;;-147.76;100.00;60361.69;5113764;28;20069;-74
2022/09/06 05:59:25;;;;;;;5.35;2.20;;;;;;;-147.76;100.00;60361.69;5113766;28;20476;-75
2022/09/06 06:01:53;;;;;;;5.70;2.50;;;;;;;-147.76;100.00;60361.69;5113453;28;20054;-73
2022/09/06 06:04:21;;;;;;;5.63;2.35;;;;;;;-147.76;100.00;60361.69;5113693;28;20081;-73
2022/09/06 06:06:49;;;;;;;6.22;2.20;;;;;;;-147.76;100.00;60361.69;5113059;28;20046;-75
2022/09/06 06:09:17;;;;;;;9.68;2.70;;;;;;;-147.76;100.00;60361.69;5113756;28;20491;-75
2022/09/06 06:11:44;;;;;;;6.15;2.28;;;;;;;-147.76;100.00;60361.69;5113077;28;20468;-75
2022/09/06 06:14:13;;;;;;;6.90;2.30;;;;;;;-147.76;100.00;60361.69;5113762;28;20404;-75
2022/09/06 06:16:41;;;;;;;8.75;2.85;;;;;;;-147.76;100.00;60361.69;5113350;28;20499;-75
2022/09/06 06:19:08;;;;;;;8.40;3.10;;;;;;;-147.76;100.00;60361.69;5113276;28;20050;-73
2022/09/06 06:21:37;;;;;;;15.10;4.00;;;;;;;-147.76;100.00;60361.69;5112967;28;20051;-74
2022/09/06 06:24:06;;;;;;;18.73;4.50;;;;;;;-147.76;100.00;60361.69;5127721;28;20066;-75
2022/09/06 06:26:35;;;;;;;9.77;3.08;;;;;;;-147.76;100.00;60361.69;5133956;27;20047;-74
2022/09/06 06:29:02;;;;;;;9.43;3.08;;;;;;;-147.76;100.00;60361.69;5133961;27;20474;-74
2022/09/06 06:31:33;;;;;;;6.75;2.58;;;;;;;-147.76;100.00;60361.69;5133833;27;20039;-75
2022/09/06 06:34:02;;;;;;;7.97;2.00;;;;;;;-147.76;100.00;60361.69;5133492;27;20043;-75
2022/09/06 06:36:32;;;;;;;8.75;2.20;;;;;;;-147.76;100.00;60361.69;5133944;27;20396;-75
2022/09/06 06:39:00;;;;;;;7.25;2.13;;;;;;;-147.76;100.00;60361.69;5125906;27;20043;-75
2022/09/06 06:41:30;;;;;;;5.38;1.80;;;;;;;-147.76;100.00;60361.69;5113038;27;20044;-72
2022/09/06 06:44:00;;;;;;;4.32;2.10;;;;;;;-147.76;100.00;60361.69;5113215;27;20070;-75
2022/09/06 06:46:28;;;;;;;6.43;2.40;;;;;;;-147.76;100.00;60361.69;5112966;27;20052;-75
2022/09/06 06:48:57;;;;;;;6.47;2.33;;;;;;;-147.76;100.00;60361.69;5112755;28;20426;-74
2022/09/06 06:51:27;;;;;;;5.28;1.90;;;;;;;-147.76;100.00;60361.69;5112779;28;20047;-76
2022/09/06 06:53:55;;;;;;;4.78;1.83;;;;;;;-147.76;100.00;60361.69;5113004;28;20048;-73
2022/09/06 06:56:24;;;;;;;8.65;2.65;;;;;;;-147.76;100.00;60361.69;5113087;28;20122;-74
2022/09/06 06:58:53;;;;;;;5.28;1.80;;;;;;;-147.76;100.00;60361.69;5113006;28;20170;-71
2022/09/06 07:01:22;;;;;;;2.30;1.67;;;;;;;-147.76;100.00;60361.69;5114232;28;20063;-75
2022/09/06 07:03:49;;;;;;;3.92;1.70;;;;;;;-147.76;100.00;60361.69;5116407;28;20051;-72
2022/09/06 07:06:19;;;;;;;4.75;1.60;;;;;;;-147.76;100.00;60361.69;5116828;28;20511;-72
2022/09/06 07:08:48;;;;;;;2.70;1.52;;;;;;;-147.76;100.00;60361.69;5116657;28;20043;-68
2022/09/06 07:11:17;;;;;;;4.57;1.60;;;;;;;-147.76;100.00;60361.69;5116629;28;20059;-75
2022/09/06 07:13:44;;;;;;;7.38;1.50;;;;;;;-147.76;100.00;60361.69;5116245;28;20051;-71
2022/09/06 07:16:15;;;;;;;1.88;1.38;;;;;;;-147.76;100.00;60361.69;5116453;28;20040;-71
2022/09/06 07:18:42;;;;;;;2.60;1.30;;;;;;;-147.76;100.00;60361.69;5117226;28;20047;-72
2022/09/06 07:21:11;;;;;;;1.50;1.30;;;;;;;-147.76;100.00;60361.69;5116381;28;20052;-74
2022/09/06 07:23:40;;;;;;;6.43;1.70;;;;;;;-147.76;100.00;60361.69;5116322;28;20093;-76
2022/09/06 07:26:08;;;;;;;5.30;1.45;;;;;;;-147.76;100.00;60361.69;5095823;28;20063;-72
2022/09/06 07:28:36;;;;;;;5.18;1.50;;;;;;;-147.76;100.00;60361.69;5095816;28;20055;-74
2022/09/06 07:31:03;;;;;;;3.88;1.50;;;;;;;-147.76;100.00;60361.69;5095615;28;20048;-71
2022/09/06 07:33:31;;;;;;;3.78;1.48;;;;;;;-147.76;100.00;60361.69;5095232;28;20536;-75
2022/09/06 07:35:59;;;;;;;1.75;1.20;;;;;;;-147.76;100.00;60361.69;5095984;28;20051;-74
2022/09/06 07:38:28;;;;;;;4.30;1.40;;;;;;;-147.76;100.00;60361.69;5098993;28;20039;-75
2022/09/06 07:40:58;;;;;;;1.55;1.20;;;;;;;-147.76;100.00;60361.69;5115912;28;20067;-75
2022/09/06 07:43:26;;;;;;;2.22;1.30;;;;;;;-147.76;100.00;60361.69;5116813;27;20047;-75
2022/09/06 07:46:03;;;;;;;2.20;1.15;;;;;;;-147.76;100.00;60361.69;5116026;27;20047;-75
2022/09/06 07:48:31;;;;;;;1.90;1.20;;;;;;;-147.76;100.00;60361.69;5117260;28;20044;-75
2022/09/06 07:51:06;;;;;;;1.55;1.10;;;;;;;-147.76;100.00;60361.69;5115781;28;20035;-73
2022/09/06 07:53:34;;;;;;;2.03;1.40;;;;;;;-147.76;100.00;60361.69;5116268;28;20066;-73
2022/09/06 07:56:05;;;;;;;1.30;1.20;;;;;;;-147.76;100.00;60361.69;5115648;28;20040;-74
2022/09/06 07:58:33;;;;;;;2.45;1.20;;;;;;;-147.76;100.00;60361.69;5117083;28;20100;-75
2022/09/06 08:01:25;;;;;;;2.28;1.30;;;;;;;-147.76;100.00;60361.69;5115319;27;20469;-75
2022/09/06 08:03:52;;;;;;;1.88;1.30;;;;;;;-147.76;100.00;60361.69;5116995;27;20145;-75
2022/09/06 08:06:21;;;;;;;5.57;1.40;;;;;;;-147.76;100.00;60361.69;5115555;28;20043;-75
2022/09/06 08:08:49;;;;;;;2.83;1.25;;;;;;;-147.76;100.00;60361.69;5115413;28;20054;-75
2022/09/06 08:11:18;;;;;;;1.88;1.20;;;;;;;-147.76;100.00;60361.69;5115343;28;20488;-72
2022/09/06 08:13:49;;;;;;;2.83;1.10;;;;;;;-147.76;100.00;60361.69;5114352;28;20051;-71
2022/09/06 08:16:18;;;;;;;1.58;1.25;;;;;;;-147.76;100.00;60361.69;5115571;27;20058;-75
2022/09/06 08:18:50;;;;;;;3.05;1.60;;;;;;;-147.76;100.00;60361.69;5115430;28;20048;-75
2022/09/06 08:21:18;;;;;;;1.30;1.15;;;;;;;-147.76;100.00;60361.69;5116125;28;20396;-71
2022/09/06 08:23:47;;;;;;;5.43;1.50;;;;;;;-147.76;100.00;60361.69;5115183;28;20066;-74
2022/09/06 08:26:15;;;;;;;1.00;1.00;;;;;;;-147.76;100.00;60361.69;5127727;27;20063;-75
2022/09/06 08:28:44;;;;;;;1.65;1.27;;;;;;;-147.76;100.00;60361.69;5135579;27;20048;-72
2022/09/06 08:31:13;;;;;;;2.33;1.30;;;;;;;-147.76;100.00;60361.69;5135137;27;20092;-75
2022/09/06 08:33:41;;;;;;;4.40;1.10;;;;;;;-147.76;100.00;60361.69;5135417;27;20050;-75
2022/09/06 08:36:10;;;;;;;4.20;1.30;;;;;;;-147.76;100.00;60361.69;5135553;27;20047;-75
2022/09/06 08:38:37;;;;;;;3.92;1.10;;;;;;;-147.76;100.00;60361.69;5130480;27;20040;-72
2022/09/06 08:41:10;;;;;;;1.63;1.23;;;;;;;-147.76;100.00;60361.69;5114883;28;20047;-75
2022/09/06 08:43:38;;;;;;;1.70;1.30;;;;;;;-147.76;100.00;60361.69;5114857;28;20047;-75
2022/09/06 08:46:09;;;;;;;6.95;1.40;;;;;;;-147.76;100.00;60361.69;5114316;27;20052;-75
2022/09/06 08:48:38;;;;;;;2.60;1.30;;;;;;;-147.76;100.00;60361.69;5115983;28;20055;-70
2022/09/06 08:51:14;;;;;;;1.52;1.20;;;;;;;-147.76;100.00;60361.69;5114621;27;20051;-75
2022/09/06 08:53:42;;;;;;;;;;;;;;;-147.76;100.00;60361.69;5114900;28;20043;-71
2022/09/06 08:56:15;;;;;;;1.77;1.20;;;;;;;-147.76;100.00;60361.69;5114630;27;19926;-74
2022/09/06 08:58:56;;;;;;;1.70;1.10;;;;;;;-147.76;100.00;60361.69;5115382;28;20043;-75
2022/09/06 09:01:42;;;;;;;1.13;1.02;;;;;;;-147.76;100.00;60361.69;5115196;28;20104;-75
2022/09/06 09:04:14;;;;;;;1.70;1.20;;;;;;;-147.76;100.00;60361.69;5115052;28;20499;-75
2022/09/06 09:06:41;;;;;;;1.33;1.20;;;;;;;-147.76;100.00;60361.69;5114148;28;20305;-71
2022/09/06 09:09:12;;;;;;;1.48;1.00;;;;;;;-147.76;100.00;60361.69;5114296;28;20048;-72
2022/09/06 09:11:44;;;;;;;3.63;1.10;;;;;;;-147.76;100.00;60361.69;5114371;28;20417;-75
2022/09/06 09:14:15;;;;;;;2.08;1.10;;;;;;;-147.76;100.00;60361.69;5114268;28;20048;-73
2022/09/06 09:16:44;;;;;;;2.03;1.02;;;;;;;-147.76;100.00;60361.69;5115440;28;20043;-72
2022/09/06 09:19:12;;;;;;;3.10;1.45;;;;;;;-147.76;100.00;60361.69;5114023;28;20050;-75
2022/09/06 09:21:40;;;;;;;2.90;1.30;;;;;;;-147.76;100.00;60361.69;5114059;28;20054;-75
2022/09/06 09:24:09;;;;;;;3.03;1.20;;;;;;;-147.76;100.00;60361.69;5114023;28;20050;-75
2022/09/06 09:26:50;;;;;;;1.25;1.10;;;;;;;-147.76;100.00;60361.69;5128638;27;20047;-73
2022/09/06 09:29:18;;;;;;;3.30;1.70;;;;;;;-147.76;100.00;60361.69;5135717;27;20129;-72
2022/09/06 09:31:49;;;;;;;1.30;1.20;;;;;;;-147.76;100.00;60361.69;5134560;27;20054;-74
2022/09/06 09:34:29;;;;;;;4.47;1.50;;;;;;;-147.76;100.00;60361.69;5134427;27;20115;-75
2022/09/06 09:37:11;;;;;;;2.17;1.20;;;;;;;-147.76;100.00;60361.69;5134802;27;20047;-75
2022/09/06 09:39:39;;;;;;;2.30;1.30;;;;;;;-147.76;100.00;60361.69;5120861;27;20063;-75
2022/09/06 09:42:09;;;;;;;2.97;1.00;;;;;;;-147.76;100.00;60361.69;5113795;27;20048;-75
2022/09/06 09:44:37;;;;;;;1.60;1.10;;;;;;;-147.76;100.00;60361.69;5113254;27;20067;-75
2022/09/06 09:47:24;;;;;;;3.05;1.10;;;;;;;-147.76;100.00;60361.69;5113778;28;20044;-72
2022/09/06 09:49:51;;;;;;;3.10;1.20;;;;;;;-147.76;100.00;60361.69;5115095;28;20040;-73
2022/09/06 09:52:25;;;;;;;4.53;1.20;;;;;;;-147.76;100.00;60361.69;5113818;28;20067;-75
2022/09/06 09:54:56;;;;;;;2.17;1.10;;;;;;;-147.76;100.00;60361.69;5113893;28;20043;-75
2022/09/06 09:57:24;;;;;;;3.85;1.30;;;;;;;-147.76;100.00;60361.69;5114331;28;20051;-75
2022/09/06 09:59:52;;;;;;;1.30;1.20;;;;;;;-147.76;100.00;60361.69;5113630;28;20051;-76
2022/09/06 10:02:24;;;;;;;1.27;1.17;;;;;;;-147.76;100.00;60361.69;5113670;28;20439;-75
2022/09/06 10:04:53;;;;;;;2.08;1.10;;;;;;;-147.76;100.00;60361.69;5114368;28;20411;-74
2022/09/06 10:07:22;;;;;;;2.00;1.25;;;;;;;-147.76;100.00;60361.69;5113687;28;20039;-75
2022/09/06 10:09:57;;;;;;;1.20;1.02;;;;;;;-147.76;100.00;60361.69;5113380;27;20055;-75
2022/09/06 10:12:29;;;;;;;4.13;1.40;;;;;;;-147.76;100.00;60361.69;5112903;28;20512;-75
2022/09/06 10:14:57;;;;;;;1.60;1.15;;;;;;;-147.76;100.00;60361.69;5113894;28;20058;-76
2022/09/06 10:17:31;;;;;;;3.85;1.20;;;;;;;-147.76;100.00;60361.69;5113455;28;20075;-75
2022/09/06 10:20:02;;;;;;;1.77;1.00;;;;;;;-147.76;100.00;60361.69;5114749;28;20047;-75
2022/09/06 10:22:31;;;;;;;1.73;1.00;;;;;;;-147.76;100.00;60361.69;5115302;28;20047;-75
2022/09/06 10:25:39;;;;;;;1.52;1.10;;;;;;;-147.76;100.00;60361.69;5113463;27;20418;-75
2022/09/06 10:28:30;;;;;;;2.53;1.25;;;;;;;-147.76;100.00;60361.69;5030568;28;20056;-75
2022/09/06 10:31:28;;;;;;;4.13;1.20;;;;;;;-147.76;100.00;60361.69;5030825;28;20050;-75
2022/09/06 10:34:07;;;;;;;1.65;1.30;;;;;;;-147.76;100.00;60361.69;5019665;28;20127;-74
2022/09/06 10:36:36;;;;;;;1.38;1.10;;;;;;;-147.76;100.00;60361.69;5034451;28;20058;-75
2022/09/06 10:39:12;;;;;;;1.77;1.20;;;;;;;-147.76;100.00;60361.69;5042678;28;20138;-75
2022/09/06 10:41:48;;;;;;;1.38;1.27;;;;;;;-147.76;100.00;60361.69;5034415;28;20049;-76
2022/09/06 10:44:18;;;;;;;;;;;;;;;-147.76;100.00;60361.69;5034989;28;20076;-75
2022/09/06 10:46:46;;;;;;;3.80;1.20;;;;;;;-147.76;100.00;60361.69;5054999;28;19920;-73
2022/09/06 10:49:18;;;;;;;2.30;1.20;;;;;;;-147.76;100.00;60361.69;5054312;28;20115;-75
2022/09/06 10:51:49;;;;;;;4.68;1.30;;;;;;;-147.76;100.00;60361.69;5056159;28;20052;-75
2022/09/06 10:54:19;;;;;;;1.60;1.08;;;;;;;-147.76;100.00;60361.69;5052454;28;20073;-75
2022/09/06 10:56:52;;;;;;;2.47;1.10;;;;;;;-147.76;100.00;60361.69;5033819;28;20061;-71
2022/09/06 10:59:22;;;;;;;4.82;1.10;;;;;;;-147.76;100.00;60361.69;5035438;28;20107;-70
2022/09/06 11:02:01;;;;;;;3.45;1.20;;;;;;;-147.76;100.00;60361.69;5058561;28;20051;-73
2022/09/06 11:04:35;;;;;;;3.38;1.00;;;;;;;-147.76;100.00;60361.69;5098096;28;20043;-71
2022/09/06 11:07:07;;;;;;;2.22;1.10;;;;;;;-147.76;100.00;60361.69;5096251;28;20134;-71
2022/09/06 11:09:39;;;;;;;1.33;1.23;;;;;;;-147.76;100.00;60361.69;5096478;28;20048;-75
2022/09/06 11:12:12;;;;;;;3.25;1.20;;;;;;;-147.76;100.00;60361.69;5095918;28;20055;-76
2022/09/06 11:14:41;;;;;;;3.80;1.10;;;;;;;-147.76;100.00;60361.69;5097301;28;20443;-69
2022/09/06 11:17:12;;;;;;;9.38;1.35;;;;;;;-147.76;100.00;60361.69;5096232;28;20040;-72
2022/09/06 11:19:44;;;;;;;1.73;1.00;;;;;;;-147.76;100.00;60361.69;5096020;28;20048;-69
2022/09/06 11:22:28;;;;;;;2.85;1.25;;;;;;;-147.76;100.00;60361.69;5096682;28;20048;-71